sensor_id;sensor_type;location;lat;lon;timestamp;temperature;humidity
20698;DHT22;10508;50.956;4.640;2023-03-12T00:01:47;5.40;99.10
20698;DHT22;10508;50.956;4.640;2023-03-12T00:04:12;5.40;99.30
20698;DHT22;10508;50.956;4.640;2023-03-12T00:06:57;5.40;99.00
20698;DHT22;10508;50.956;4.640;2023-03-12T00:09:22;5.40;99.20
20698;DHT22;10508;50.956;4.640;2023-03-12T00:12:07;5.50;99.40
20698;DHT22;10508;50.956;4.640;2023-03-12T00:14:33;5.40;99.30
20698;DHT22;10508;50.956;4.640;2023-03-12T00:16:59;5.40;99.50
20698;DHT22;10508;50.956;4.640;2023-03-12T00:19:25;5.30;99.60
20698;DHT22;10508;50.956;4.640;2023-03-12T00:21:50;5.30;99.70
20698;DHT22;10508;50.956;4.640;2023-03-12T00:24:16;5.30;99.90
20698;DHT22;10508;50.956;4.640;2023-03-12T00:26:42;5.30;99.90
20698;DHT22;10508;50.956;4.640;2023-03-12T00:29:08;5.30;99.90
20698;DHT22;10508;50.956;4.640;2023-03-12T00:31:33;5.30;99.90
20698;DHT22;10508;50.956;4.640;2023-03-12T00:34:00;5.30;99.90
20698;DHT22;10508;50.956;4.640;2023-03-12T00:36:28;5.40;99.90
20698;DHT22;10508;50.956;4.640;2023-03-12T00:38:56;5.30;99.90
20698;DHT22;10508;50.956;4.640;2023-03-12T00:41:23;5.40;99.90
20698;DHT22;10508;50.956;4.640;2023-03-12T00:43:50;5.40;99.90
20698;DHT22;10508;50.956;4.640;2023-03-12T00:46:16;5.40;99.90
20698;DHT22;10508;50.956;4.640;2023-03-12T00:48:42;5.40;99.90
20698;DHT22;10508;50.956;4.640;2023-03-12T00:51:09;5.40;99.90
20698;DHT22;10508;50.956;4.640;2023-03-12T00:53:35;5.40;99.90
20698;DHT22;10508;50.956;4.640;2023-03-12T00:56:13;5.40;99.90
20698;DHT22;10508;50.956;4.640;2023-03-12T00:58:39;5.30;99.90
20698;DHT22;10508;50.956;4.640;2023-03-12T01:01:07;5.30;99.90
20698;DHT22;10508;50.956;4.640;2023-03-12T01:03:33;5.40;99.90
20698;DHT22;10508;50.956;4.640;2023-03-12T01:05:59;5.40;99.90
20698;DHT22;10508;50.956;4.640;2023-03-12T01:08:24;5.40;99.90
20698;DHT22;10508;50.956;4.640;2023-03-12T01:10:50;5.40;99.90
20698;DHT22;10508;50.956;4.640;2023-03-12T01:13:16;5.40;99.90
20698;DHT22;10508;50.956;4.640;2023-03-12T01:15:42;5.40;99.90
20698;DHT22;10508;50.956;4.640;2023-03-12T01:18:08;5.30;99.90
20698;DHT22;10508;50.956;4.640;2023-03-12T01:20:33;5.40;99.90
20698;DHT22;10508;50.956;4.640;2023-03-12T01:22:59;5.40;99.90
20698;DHT22;10508;50.956;4.640;2023-03-12T01:25:25;5.30;99.90
20698;DHT22;10508;50.956;4.640;2023-03-12T01:27:50;5.40;99.90
20698;DHT22;10508;50.956;4.640;2023-03-12T01:30:17;5.30;99.90
20698;DHT22;10508;50.956;4.640;2023-03-12T01:32:42;5.30;99.90
20698;DHT22;10508;50.956;4.640;2023-03-12T01:35:08;5.40;99.90
20698;DHT22;10508;50.956;4.640;2023-03-12T01:37:35;5.40;99.90
20698;DHT22;10508;50.956;4.640;2023-03-12T01:40:01;5.40;99.90
20698;DHT22;10508;50.956;4.640;2023-03-12T01:42:26;5.40;99.90
20698;DHT22;10508;50.956;4.640;2023-03-12T01:44:55;5.30;99.90
20698;DHT22;10508;50.956;4.640;2023-03-12T01:47:22;5.30;99.90
20698;DHT22;10508;50.956;4.640;2023-03-12T01:50:00;5.30;99.90
20698;DHT22;10508;50.956;4.640;2023-03-12T01:52:34;5.30;99.90
20698;DHT22;10508;50.956;4.640;2023-03-12T01:55:08;5.30;99.90
20698;DHT22;10508;50.956;4.640;2023-03-12T01:58:04;5.20;99.90
20698;DHT22;10508;50.956;4.640;2023-03-12T02:00:31;5.20;99.90
20698;DHT22;10508;50.956;4.640;2023-03-12T02:03:04;5.20;99.90
20698;DHT22;10508;50.956;4.640;2023-03-12T02:08:09;5.10;99.90
20698;DHT22;10508;50.956;4.640;2023-03-12T02:10:35;5.10;99.90
20698;DHT22;10508;50.956;4.640;2023-03-12T02:13:01;5.10;99.90
20698;DHT22;10508;50.956;4.640;2023-03-12T02:15:27;5.10;99.90
20698;DHT22;10508;50.956;4.640;2023-03-12T02:17:53;5.00;99.90
20698;DHT22;10508;50.956;4.640;2023-03-12T02:23:02;5.00;99.90
20698;DHT22;10508;50.956;4.640;2023-03-12T02:25:38;5.10;99.90
20698;DHT22;10508;50.956;4.640;2023-03-12T02:28:09;4.90;99.90
20698;DHT22;10508;50.956;4.640;2023-03-12T02:30:38;4.90;99.90
20698;DHT22;10508;50.956;4.640;2023-03-12T02:33:24;5.00;99.90
20698;DHT22;10508;50.956;4.640;2023-03-12T02:35:51;5.00;99.90
20698;DHT22;10508;50.956;4.640;2023-03-12T02:38:48;4.90;99.90
20698;DHT22;10508;50.956;4.640;2023-03-12T02:41:40;4.90;99.90
20698;DHT22;10508;50.956;4.640;2023-03-12T02:44:12;4.90;99.90
20698;DHT22;10508;50.956;4.640;2023-03-12T02:46:50;4.90;99.90
20698;DHT22;10508;50.956;4.640;2023-03-12T02:49:18;4.90;99.90
20698;DHT22;10508;50.956;4.640;2023-03-12T02:51:45;5.00;99.90
20698;DHT22;10508;50.956;4.640;2023-03-12T02:54:13;5.00;99.90
20698;DHT22;10508;50.956;4.640;2023-03-12T02:56:39;5.00;99.90
20698;DHT22;10508;50.956;4.640;2023-03-12T02:59:06;5.00;99.90
20698;DHT22;10508;50.956;4.640;2023-03-12T03:01:32;5.00;99.90
20698;DHT22;10508;50.956;4.640;2023-03-12T03:04:04;5.00;99.90
20698;DHT22;10508;50.956;4.640;2023-03-12T03:06:30;4.90;99.90
20698;DHT22;10508;50.956;4.640;2023-03-12T03:08:57;4.90;99.90
20698;DHT22;10508;50.956;4.640;2023-03-12T03:11:23;4.90;99.90
20698;DHT22;10508;50.956;4.640;2023-03-12T03:13:50;4.90;99.90
20698;DHT22;10508;50.956;4.640;2023-03-12T03:16:16;4.90;99.90
20698;DHT22;10508;50.956;4.640;2023-03-12T03:18:42;5.00;99.90
20698;DHT22;10508;50.956;4.640;2023-03-12T03:21:09;5.00;99.90
20698;DHT22;10508;50.956;4.640;2023-03-12T03:23:35;5.00;99.90
20698;DHT22;10508;50.956;4.640;2023-03-12T03:26:01;5.00;99.90
20698;DHT22;10508;50.956;4.640;2023-03-12T03:28:29;5.00;99.90
20698;DHT22;10508;50.956;4.640;2023-03-12T03:30:56;5.00;99.90
20698;DHT22;10508;50.956;4.640;2023-03-12T03:33:25;5.00;99.90
20698;DHT22;10508;50.956;4.640;2023-03-12T03:35:50;5.00;99.90
20698;DHT22;10508;50.956;4.640;2023-03-12T03:38:16;4.90;99.90
20698;DHT22;10508;50.956;4.640;2023-03-12T03:40:42;5.00;99.90
20698;DHT22;10508;50.956;4.640;2023-03-12T03:43:08;4.90;99.90
20698;DHT22;10508;50.956;4.640;2023-03-12T03:45:33;4.90;99.90
20698;DHT22;10508;50.956;4.640;2023-03-12T03:47:59;4.90;99.90
20698;DHT22;10508;50.956;4.640;2023-03-12T03:50:25;4.90;99.90
20698;DHT22;10508;50.956;4.640;2023-03-12T03:52:50;4.90;99.90
20698;DHT22;10508;50.956;4.640;2023-03-12T03:55:16;4.90;99.90
20698;DHT22;10508;50.956;4.640;2023-03-12T03:57:42;4.90;99.90
20698;DHT22;10508;50.956;4.640;2023-03-12T04:00:08;4.90;99.90
20698;DHT22;10508;50.956;4.640;2023-03-12T04:02:38;4.90;99.90
20698;DHT22;10508;50.956;4.640;2023-03-12T04:05:04;4.90;99.90
20698;DHT22;10508;50.956;4.640;2023-03-12T04:07:30;4.90;99.90
20698;DHT22;10508;50.956;4.640;2023-03-12T04:09:56;5.00;99.90
20698;DHT22;10508;50.956;4.640;2023-03-12T04:12:22;5.00;99.90
20698;DHT22;10508;50.956;4.640;2023-03-12T04:14:51;4.90;99.90
20698;DHT22;10508;50.956;4.640;2023-03-12T04:17:17;4.90;99.90
20698;DHT22;10508;50.956;4.640;2023-03-12T04:19:43;4.90;99.90
20698;DHT22;10508;50.956;4.640;2023-03-12T04:22:08;5.00;99.90
20698;DHT22;10508;50.956;4.640;2023-03-12T04:24:34;5.00;99.90
20698;DHT22;10508;50.956;4.640;2023-03-12T04:27:00;5.00;99.90
20698;DHT22;10508;50.956;4.640;2023-03-12T04:29:25;5.00;99.90
20698;DHT22;10508;50.956;4.640;2023-03-12T04:31:51;5.00;99.90
20698;DHT22;10508;50.956;4.640;2023-03-12T04:34:17;5.00;99.90
20698;DHT22;10508;50.956;4.640;2023-03-12T04:36:52;5.10;99.90
20698;DHT22;10508;50.956;4.640;2023-03-12T04:39:18;5.10;99.90
20698;DHT22;10508;50.956;4.640;2023-03-12T04:41:44;5.10;99.90
20698;DHT22;10508;50.956;4.640;2023-03-12T04:44:11;5.10;99.90
20698;DHT22;10508;50.956;4.640;2023-03-12T04:46:36;5.00;99.90
20698;DHT22;10508;50.956;4.640;2023-03-12T04:49:03;5.00;99.90
20698;DHT22;10508;50.956;4.640;2023-03-12T04:51:30;5.00;99.90
20698;DHT22;10508;50.956;4.640;2023-03-12T04:53:57;5.00;99.90
20698;DHT22;10508;50.956;4.640;2023-03-12T04:56:23;5.10;99.90
20698;DHT22;10508;50.956;4.640;2023-03-12T04:58:49;5.10;99.90
20698;DHT22;10508;50.956;4.640;2023-03-12T05:01:22;5.10;99.90
20698;DHT22;10508;50.956;4.640;2023-03-12T05:03:48;5.10;99.90
20698;DHT22;10508;50.956;4.640;2023-03-12T05:06:14;5.10;99.90
20698;DHT22;10508;50.956;4.640;2023-03-12T05:08:39;5.10;99.90
20698;DHT22;10508;50.956;4.640;2023-03-12T05:11:05;5.20;99.90
20698;DHT22;10508;50.956;4.640;2023-03-12T05:13:31;5.20;99.90
20698;DHT22;10508;50.956;4.640;2023-03-12T05:15:57;5.20;99.90
20698;DHT22;10508;50.956;4.640;2023-03-12T05:18:22;5.20;99.90
20698;DHT22;10508;50.956;4.640;2023-03-12T05:23:28;5.10;99.90
20698;DHT22;10508;50.956;4.640;2023-03-12T05:25:54;5.20;99.90
20698;DHT22;10508;50.956;4.640;2023-03-12T05:28:20;5.20;99.90
20698;DHT22;10508;50.956;4.640;2023-03-12T05:30:46;5.10;99.90
20698;DHT22;10508;50.956;4.640;2023-03-12T05:33:11;5.20;99.90
20698;DHT22;10508;50.956;4.640;2023-03-12T05:35:37;5.20;99.90
20698;DHT22;10508;50.956;4.640;2023-03-12T05:38:03;5.20;99.90
20698;DHT22;10508;50.956;4.640;2023-03-12T05:40:29;5.30;99.90
20698;DHT22;10508;50.956;4.640;2023-03-12T05:42:55;5.30;99.90
20698;DHT22;10508;50.956;4.640;2023-03-12T05:45:20;5.40;99.90
20698;DHT22;10508;50.956;4.640;2023-03-12T05:47:46;5.40;99.90
20698;DHT22;10508;50.956;4.640;2023-03-12T05:50:12;5.50;99.90
20698;DHT22;10508;50.956;4.640;2023-03-12T05:52:38;5.50;99.90
20698;DHT22;10508;50.956;4.640;2023-03-12T05:55:04;5.50;99.90
20698;DHT22;10508;50.956;4.640;2023-03-12T05:57:29;5.50;99.90
20698;DHT22;10508;50.956;4.640;2023-03-12T05:59:55;5.50;99.90
20698;DHT22;10508;50.956;4.640;2023-03-12T06:02:21;5.60;99.90
20698;DHT22;10508;50.956;4.640;2023-03-12T06:04:46;5.60;99.90
20698;DHT22;10508;50.956;4.640;2023-03-12T06:07:12;5.60;99.90
20698;DHT22;10508;50.956;4.640;2023-03-12T06:09:37;5.60;99.90
20698;DHT22;10508;50.956;4.640;2023-03-12T06:12:03;5.60;99.90
20698;DHT22;10508;50.956;4.640;2023-03-12T06:14:29;5.60;99.90
20698;DHT22;10508;50.956;4.640;2023-03-12T06:16:55;5.60;99.90
20698;DHT22;10508;50.956;4.640;2023-03-12T06:19:20;5.70;99.90
20698;DHT22;10508;50.956;4.640;2023-03-12T06:21:46;5.70;99.90
20698;DHT22;10508;50.956;4.640;2023-03-12T06:24:12;5.70;99.90
20698;DHT22;10508;50.956;4.640;2023-03-12T06:26:38;5.70;99.90
20698;DHT22;10508;50.956;4.640;2023-03-12T06:29:04;5.70;99.90
20698;DHT22;10508;50.956;4.640;2023-03-12T06:31:30;5.80;99.90
20698;DHT22;10508;50.956;4.640;2023-03-12T06:33:56;5.80;99.90
20698;DHT22;10508;50.956;4.640;2023-03-12T06:36:21;5.90;99.90
20698;DHT22;10508;50.956;4.640;2023-03-12T06:38:48;5.90;99.90
20698;DHT22;10508;50.956;4.640;2023-03-12T06:41:16;6.00;99.90
20698;DHT22;10508;50.956;4.640;2023-03-12T06:43:43;6.00;99.90
20698;DHT22;10508;50.956;4.640;2023-03-12T06:46:12;6.00;99.90
20698;DHT22;10508;50.956;4.640;2023-03-12T06:48:38;6.00;99.90
20698;DHT22;10508;50.956;4.640;2023-03-12T06:51:07;6.10;99.90
20698;DHT22;10508;50.956;4.640;2023-03-12T06:53:33;6.10;99.90
20698;DHT22;10508;50.956;4.640;2023-03-12T06:55:59;6.20;99.90
20698;DHT22;10508;50.956;4.640;2023-03-12T06:58:25;6.20;99.90
20698;DHT22;10508;50.956;4.640;2023-03-12T07:00:52;6.20;99.90
20698;DHT22;10508;50.956;4.640;2023-03-12T07:03:18;6.30;99.90
20698;DHT22;10508;50.956;4.640;2023-03-12T07:05:46;6.30;99.90
20698;DHT22;10508;50.956;4.640;2023-03-12T07:08:12;6.30;99.90
20698;DHT22;10508;50.956;4.640;2023-03-12T07:10:38;6.40;99.90
20698;DHT22;10508;50.956;4.640;2023-03-12T07:13:04;6.50;99.90
20698;DHT22;10508;50.956;4.640;2023-03-12T07:15:48;6.50;99.90
20698;DHT22;10508;50.956;4.640;2023-03-12T07:18:14;6.50;99.90
20698;DHT22;10508;50.956;4.640;2023-03-12T07:20:41;6.60;99.90
20698;DHT22;10508;50.956;4.640;2023-03-12T07:23:08;6.70;99.90
20698;DHT22;10508;50.956;4.640;2023-03-12T07:25:35;6.80;99.90
20698;DHT22;10508;50.956;4.640;2023-03-12T07:28:02;6.80;99.90
20698;DHT22;10508;50.956;4.640;2023-03-12T07:30:28;6.90;99.90
20698;DHT22;10508;50.956;4.640;2023-03-12T07:32:59;7.00;99.90
20698;DHT22;10508;50.956;4.640;2023-03-12T07:35:42;7.00;99.90
20698;DHT22;10508;50.956;4.640;2023-03-12T07:38:08;7.20;99.90
20698;DHT22;10508;50.956;4.640;2023-03-12T07:40:34;7.40;99.90
20698;DHT22;10508;50.956;4.640;2023-03-12T07:43:00;7.40;99.90
20698;DHT22;10508;50.956;4.640;2023-03-12T07:45:26;7.50;99.90
20698;DHT22;10508;50.956;4.640;2023-03-12T07:47:52;7.50;99.90
20698;DHT22;10508;50.956;4.640;2023-03-12T07:50:18;7.60;99.90
20698;DHT22;10508;50.956;4.640;2023-03-12T07:52:44;7.60;99.90
20698;DHT22;10508;50.956;4.640;2023-03-12T07:55:11;7.70;99.90
20698;DHT22;10508;50.956;4.640;2023-03-12T07:57:42;7.70;99.90
20698;DHT22;10508;50.956;4.640;2023-03-12T08:00:11;7.80;99.90
20698;DHT22;10508;50.956;4.640;2023-03-12T08:02:37;7.80;99.90
20698;DHT22;10508;50.956;4.640;2023-03-12T08:05:16;7.80;99.90
20698;DHT22;10508;50.956;4.640;2023-03-12T08:07:41;7.80;99.90
20698;DHT22;10508;50.956;4.640;2023-03-12T08:10:08;7.90;99.90
20698;DHT22;10508;50.956;4.640;2023-03-12T08:12:34;8.00;99.90
20698;DHT22;10508;50.956;4.640;2023-03-12T08:15:05;8.00;99.90
20698;DHT22;10508;50.956;4.640;2023-03-12T08:17:30;8.00;99.90
20698;DHT22;10508;50.956;4.640;2023-03-12T08:19:56;8.10;99.90
20698;DHT22;10508;50.956;4.640;2023-03-12T08:22:22;8.10;99.90
20698;DHT22;10508;50.956;4.640;2023-03-12T08:24:47;8.10;99.90
20698;DHT22;10508;50.956;4.640;2023-03-12T08:27:13;8.20;99.90
20698;DHT22;10508;50.956;4.640;2023-03-12T08:29:40;8.20;99.90
20698;DHT22;10508;50.956;4.640;2023-03-12T08:32:06;8.30;99.90
20698;DHT22;10508;50.956;4.640;2023-03-12T08:34:51;8.30;99.90
20698;DHT22;10508;50.956;4.640;2023-03-12T08:37:16;8.30;99.90
20698;DHT22;10508;50.956;4.640;2023-03-12T08:39:42;8.40;99.90
20698;DHT22;10508;50.956;4.640;2023-03-12T08:42:08;8.50;99.90
20698;DHT22;10508;50.956;4.640;2023-03-12T08:44:33;8.60;99.90
20698;DHT22;10508;50.956;4.640;2023-03-12T08:46:59;8.60;99.90
20698;DHT22;10508;50.956;4.640;2023-03-12T08:49:25;8.70;99.90
20698;DHT22;10508;50.956;4.640;2023-03-12T08:51:51;8.70;99.90
20698;DHT22;10508;50.956;4.640;2023-03-12T08:54:18;8.80;99.90
20698;DHT22;10508;50.956;4.640;2023-03-12T08:56:44;8.90;99.90
20698;DHT22;10508;50.956;4.640;2023-03-12T08:59:12;9.00;99.90
20698;DHT22;10508;50.956;4.640;2023-03-12T09:01:38;9.10;99.90
20698;DHT22;10508;50.956;4.640;2023-03-12T09:04:06;9.20;99.90
20698;DHT22;10508;50.956;4.640;2023-03-12T09:06:32;9.30;99.90
20698;DHT22;10508;50.956;4.640;2023-03-12T09:08:59;9.50;99.90
20698;DHT22;10508;50.956;4.640;2023-03-12T09:11:30;9.50;99.90
20698;DHT22;10508;50.956;4.640;2023-03-12T09:13:56;9.60;99.90
20698;DHT22;10508;50.956;4.640;2023-03-12T09:16:21;9.70;99.90
20698;DHT22;10508;50.956;4.640;2023-03-12T09:18:47;9.80;99.90
20698;DHT22;10508;50.956;4.640;2023-03-12T09:21:13;10.00;99.90
20698;DHT22;10508;50.956;4.640;2023-03-12T09:23:39;10.00;99.90
20698;DHT22;10508;50.956;4.640;2023-03-12T09:26:09;10.00;99.90
20698;DHT22;10508;50.956;4.640;2023-03-12T09:28:35;10.10;99.90
20698;DHT22;10508;50.956;4.640;2023-03-12T09:31:02;10.10;99.90
20698;DHT22;10508;50.956;4.640;2023-03-12T09:33:28;10.10;99.90
20698;DHT22;10508;50.956;4.640;2023-03-12T09:35:58;10.20;99.90
20698;DHT22;10508;50.956;4.640;2023-03-12T09:38:25;10.20;99.90
20698;DHT22;10508;50.956;4.640;2023-03-12T09:40:52;10.40;99.90
20698;DHT22;10508;50.956;4.640;2023-03-12T09:45:48;10.60;99.90
20698;DHT22;10508;50.956;4.640;2023-03-12T09:48:41;10.90;99.90
20698;DHT22;10508;50.956;4.640;2023-03-12T09:51:17;11.00;99.90
20698;DHT22;10508;50.956;4.640;2023-03-12T09:53:51;11.30;99.90
20698;DHT22;10508;50.956;4.640;2023-03-12T09:56:19;11.80;99.90
20698;DHT22;10508;50.956;4.640;2023-03-12T09:58:46;12.30;99.90
20698;DHT22;10508;50.956;4.640;2023-03-12T10:06:20;13.30;99.90
20698;DHT22;10508;50.956;4.640;2023-03-12T10:14:21;12.60;99.90
20698;DHT22;10508;50.956;4.640;2023-03-12T10:20:02;12.60;99.90
20698;DHT22;10508;50.956;4.640;2023-03-12T10:27:47;13.10;99.90
20698;DHT22;10508;50.956;4.640;2023-03-12T10:30:19;12.90;99.90
20698;DHT22;10508;50.956;4.640;2023-03-12T10:32:55;12.60;99.90
20698;DHT22;10508;50.956;4.640;2023-03-12T10:35:24;12.40;99.90
20698;DHT22;10508;50.956;4.640;2023-03-12T10:37:57;12.30;99.90
20698;DHT22;10508;50.956;4.640;2023-03-12T10:40:28;12.10;99.90
20698;DHT22;10508;50.956;4.640;2023-03-12T10:42:54;12.00;99.90
20698;DHT22;10508;50.956;4.640;2023-03-12T10:45:35;12.00;99.90
20698;DHT22;10508;50.956;4.640;2023-03-12T10:48:05;12.00;99.90
20698;DHT22;10508;50.956;4.640;2023-03-12T10:51:07;11.90;99.90
20698;DHT22;10508;50.956;4.640;2023-03-12T10:53:44;11.90;99.90
20698;DHT22;10508;50.956;4.640;2023-03-12T10:56:13;12.00;99.90
20698;DHT22;10508;50.956;4.640;2023-03-12T10:58:57;12.20;99.90
20698;DHT22;10508;50.956;4.640;2023-03-12T11:01:46;12.50;99.90
20698;DHT22;10508;50.956;4.640;2023-03-12T11:04:23;12.70;99.90
20698;DHT22;10508;50.956;4.640;2023-03-12T11:07:28;12.70;99.90
20698;DHT22;10508;50.956;4.640;2023-03-12T11:10:22;12.80;99.90
20698;DHT22;10508;50.956;4.640;2023-03-12T11:13:29;13.00;99.90
20698;DHT22;10508;50.956;4.640;2023-03-12T11:16:01;13.20;99.90
20698;DHT22;10508;50.956;4.640;2023-03-12T11:18:31;13.10;99.90
20698;DHT22;10508;50.956;4.640;2023-03-12T11:21:13;13.00;99.90
20698;DHT22;10508;50.956;4.640;2023-03-12T11:29:22;12.70;99.90
20698;DHT22;10508;50.956;4.640;2023-03-12T11:34:34;12.50;99.90
20698;DHT22;10508;50.956;4.640;2023-03-12T11:56:50;12.70;99.90
20698;DHT22;10508;50.956;4.640;2023-03-12T12:13:10;12.50;99.90
20698;DHT22;10508;50.956;4.640;2023-03-12T12:21:19;12.70;99.90
20698;DHT22;10508;50.956;4.640;2023-03-12T12:29:35;12.70;99.90
20698;DHT22;10508;50.956;4.640;2023-03-12T12:32:04;12.80;99.90
20698;DHT22;10508;50.956;4.640;2023-03-12T12:34:53;12.80;99.90
20698;DHT22;10508;50.956;4.640;2023-03-12T12:40:20;12.70;99.90
20698;DHT22;10508;50.956;4.640;2023-03-12T12:45:31;12.80;99.90
20698;DHT22;10508;50.956;4.640;2023-03-12T12:48:05;12.90;99.90
20698;DHT22;10508;50.956;4.640;2023-03-12T12:50:36;13.00;99.90
20698;DHT22;10508;50.956;4.640;2023-03-12T12:55:51;13.30;99.90
20698;DHT22;10508;50.956;4.640;2023-03-12T13:01:14;13.40;99.90
20698;DHT22;10508;50.956;4.640;2023-03-12T13:03:41;13.50;99.90
20698;DHT22;10508;50.956;4.640;2023-03-12T13:06:07;13.60;99.90
20698;DHT22;10508;50.956;4.640;2023-03-12T13:08:58;13.70;99.90
20698;DHT22;10508;50.956;4.640;2023-03-12T13:11:27;14.00;99.90
20698;DHT22;10508;50.956;4.640;2023-03-12T13:16:38;14.10;99.90
20698;DHT22;10508;50.956;4.640;2023-03-12T13:27:22;13.60;99.90
20698;DHT22;10508;50.956;4.640;2023-03-12T13:29:48;13.60;99.90
20698;DHT22;10508;50.956;4.640;2023-03-12T13:34:58;13.40;99.90
20698;DHT22;10508;50.956;4.640;2023-03-12T13:37:46;13.40;99.90
20698;DHT22;10508;50.956;4.640;2023-03-12T13:43:14;13.30;99.90
20698;DHT22;10508;50.956;4.640;2023-03-12T13:48:20;13.20;99.90
20698;DHT22;10508;50.956;4.640;2023-03-12T13:50:52;13.20;99.90
20698;DHT22;10508;50.956;4.640;2023-03-12T13:53:25;13.20;99.90
20698;DHT22;10508;50.956;4.640;2023-03-12T13:56:04;13.20;99.90
20698;DHT22;10508;50.956;4.640;2023-03-12T13:58:47;13.20;99.90
20698;DHT22;10508;50.956;4.640;2023-03-12T14:01:16;13.20;99.90
20698;DHT22;10508;50.956;4.640;2023-03-12T14:03:49;13.20;99.90
20698;DHT22;10508;50.956;4.640;2023-03-12T14:06:21;13.30;99.90
20698;DHT22;10508;50.956;4.640;2023-03-12T14:09:12;13.30;99.90
20698;DHT22;10508;50.956;4.640;2023-03-12T14:17:14;13.10;99.90
20698;DHT22;10508;50.956;4.640;2023-03-12T14:19:45;13.10;99.90
20698;DHT22;10508;50.956;4.640;2023-03-12T14:22:12;13.00;99.90
20698;DHT22;10508;50.956;4.640;2023-03-12T14:24:41;12.90;99.90
20698;DHT22;10508;50.956;4.640;2023-03-12T14:27:18;12.90;99.90
20698;DHT22;10508;50.956;4.640;2023-03-12T14:29:50;12.90;99.90
20698;DHT22;10508;50.956;4.640;2023-03-12T14:32:20;12.80;99.90
20698;DHT22;10508;50.956;4.640;2023-03-12T14:34:52;12.80;99.90
20698;DHT22;10508;50.956;4.640;2023-03-12T14:37:20;12.90;99.90
20698;DHT22;10508;50.956;4.640;2023-03-12T14:39:54;12.90;99.90
20698;DHT22;10508;50.956;4.640;2023-03-12T14:44:59;12.80;99.90
20698;DHT22;10508;50.956;4.640;2023-03-12T14:47:26;12.80;99.90
20698;DHT22;10508;50.956;4.640;2023-03-12T14:49:54;12.90;99.90
20698;DHT22;10508;50.956;4.640;2023-03-12T14:52:28;12.90;99.90
20698;DHT22;10508;50.956;4.640;2023-03-12T14:55:00;12.90;99.90
20698;DHT22;10508;50.956;4.640;2023-03-12T14:57:26;12.90;99.90
20698;DHT22;10508;50.956;4.640;2023-03-12T14:59:59;12.90;99.90
20698;DHT22;10508;50.956;4.640;2023-03-12T15:02:27;13.00;99.90
20698;DHT22;10508;50.956;4.640;2023-03-12T15:04:58;13.00;99.90
20698;DHT22;10508;50.956;4.640;2023-03-12T15:07:32;13.10;99.90
20698;DHT22;10508;50.956;4.640;2023-03-12T15:09:59;13.20;99.90
20698;DHT22;10508;50.956;4.640;2023-03-12T15:12:36;13.20;99.90
20698;DHT22;10508;50.956;4.640;2023-03-12T15:17:54;13.20;99.90
20698;DHT22;10508;50.956;4.640;2023-03-12T15:20:21;13.20;99.90
20698;DHT22;10508;50.956;4.640;2023-03-12T15:22:49;13.10;99.90
20698;DHT22;10508;50.956;4.640;2023-03-12T15:25:29;13.10;99.90
20698;DHT22;10508;50.956;4.640;2023-03-12T15:30:37;12.90;99.90
20698;DHT22;10508;50.956;4.640;2023-03-12T15:35:58;12.80;99.90
20698;DHT22;10508;50.956;4.640;2023-03-12T15:38:25;12.80;99.90
20698;DHT22;10508;50.956;4.640;2023-03-12T15:40:52;12.90;99.90
20698;DHT22;10508;50.956;4.640;2023-03-12T15:43:21;12.80;99.90
20698;DHT22;10508;50.956;4.640;2023-03-12T15:45:59;12.80;99.90
20698;DHT22;10508;50.956;4.640;2023-03-12T15:48:38;12.70;99.90
20698;DHT22;10508;50.956;4.640;2023-03-12T15:54:05;12.70;99.90
20698;DHT22;10508;50.956;4.640;2023-03-12T15:56:45;12.70;99.90
20698;DHT22;10508;50.956;4.640;2023-03-12T15:59:23;12.70;99.90
20698;DHT22;10508;50.956;4.640;2023-03-12T16:01:54;12.70;99.90
20698;DHT22;10508;50.956;4.640;2023-03-12T16:04:21;12.70;99.90
20698;DHT22;10508;50.956;4.640;2023-03-12T16:06:49;12.70;99.90
20698;DHT22;10508;50.956;4.640;2023-03-12T16:09:21;12.70;99.90
20698;DHT22;10508;50.956;4.640;2023-03-12T16:11:49;12.70;99.90
20698;DHT22;10508;50.956;4.640;2023-03-12T16:14:26;12.70;99.90
20698;DHT22;10508;50.956;4.640;2023-03-12T16:16:53;12.60;99.90
20698;DHT22;10508;50.956;4.640;2023-03-12T16:19:21;12.60;99.90
20698;DHT22;10508;50.956;4.640;2023-03-12T16:21:47;12.60;99.90
20698;DHT22;10508;50.956;4.640;2023-03-12T16:24:13;12.60;99.90
20698;DHT22;10508;50.956;4.640;2023-03-12T16:26:56;12.60;99.90
20698;DHT22;10508;50.956;4.640;2023-03-12T16:29:31;12.60;99.90
20698;DHT22;10508;50.956;4.640;2023-03-12T16:31:57;12.50;99.90
20698;DHT22;10508;50.956;4.640;2023-03-12T16:34:23;12.60;99.90
20698;DHT22;10508;50.956;4.640;2023-03-12T16:36:49;12.60;99.90
20698;DHT22;10508;50.956;4.640;2023-03-12T16:39:15;12.50;99.90
20698;DHT22;10508;50.956;4.640;2023-03-12T16:41:41;12.50;99.90
20698;DHT22;10508;50.956;4.640;2023-03-12T16:44:11;12.50;99.90
20698;DHT22;10508;50.956;4.640;2023-03-12T16:46:38;12.50;99.90
20698;DHT22;10508;50.956;4.640;2023-03-12T16:49:04;12.50;99.90
20698;DHT22;10508;50.956;4.640;2023-03-12T16:51:29;12.50;99.90
20698;DHT22;10508;50.956;4.640;2023-03-12T16:53:55;12.50;99.90
20698;DHT22;10508;50.956;4.640;2023-03-12T16:56:25;12.40;99.90
20698;DHT22;10508;50.956;4.640;2023-03-12T16:58:52;12.50;99.90
20698;DHT22;10508;50.956;4.640;2023-03-12T17:01:20;12.40;99.90
20698;DHT22;10508;50.956;4.640;2023-03-12T17:03:47;12.40;99.90
20698;DHT22;10508;50.956;4.640;2023-03-12T17:06:21;12.40;99.90
20698;DHT22;10508;50.956;4.640;2023-03-12T17:08:47;12.30;99.90
20698;DHT22;10508;50.956;4.640;2023-03-12T17:11:16;12.30;99.90
20698;DHT22;10508;50.956;4.640;2023-03-12T17:13:44;12.30;99.90
20698;DHT22;10508;50.956;4.640;2023-03-12T17:16:12;12.80;99.90
20698;DHT22;10508;50.956;4.640;2023-03-12T17:18:39;12.30;99.90
20698;DHT22;10508;50.956;4.640;2023-03-12T17:21:05;12.10;99.90
20698;DHT22;10508;50.956;4.640;2023-03-12T17:23:31;12.10;99.90
20698;DHT22;10508;50.956;4.640;2023-03-12T17:25:57;12.10;99.90
20698;DHT22;10508;50.956;4.640;2023-03-12T17:28:23;12.00;99.90
20698;DHT22;10508;50.956;4.640;2023-03-12T17:30:49;12.00;99.90
20698;DHT22;10508;50.956;4.640;2023-03-12T17:33:17;12.00;99.90
20698;DHT22;10508;50.956;4.640;2023-03-12T17:35:43;12.00;99.90
20698;DHT22;10508;50.956;4.640;2023-03-12T17:38:10;12.00;99.90
20698;DHT22;10508;50.956;4.640;2023-03-12T17:40:43;11.90;99.90
20698;DHT22;10508;50.956;4.640;2023-03-12T17:43:09;11.90;99.90
20698;DHT22;10508;50.956;4.640;2023-03-12T17:45:35;11.90;99.90
20698;DHT22;10508;50.956;4.640;2023-03-12T17:48:03;11.80;99.90
20698;DHT22;10508;50.956;4.640;2023-03-12T17:50:29;11.80;99.90
20698;DHT22;10508;50.956;4.640;2023-03-12T17:52:55;11.80;99.90
20698;DHT22;10508;50.956;4.640;2023-03-12T17:55:20;11.70;99.90
20698;DHT22;10508;50.956;4.640;2023-03-12T17:57:46;11.70;99.90
20698;DHT22;10508;50.956;4.640;2023-03-12T18:00:12;11.80;99.90
20698;DHT22;10508;50.956;4.640;2023-03-12T18:02:39;11.80;99.90
20698;DHT22;10508;50.956;4.640;2023-03-12T18:05:06;11.70;99.90